KMWH/MWH METAR and TAF weather

Enter ICAO airport designator
Station Type Date Time Source
KMWH METAR 2019/04/22 15:52 UTC NOAA

KMWH 221552Z 15009KT 10SM CLR 12/ A3022 RMK AO2 SLP234 T0122 $


Station Type Date Time Source
KMWH Decoded METAR 2019/04/22 15:52 UTC NOAA

GRANT COUNTY AIRPORT, WA, United States (KMWH) 47-12N 119-19W 362M
Apr 22, 2019 - 11:52 AM EDT / 2019.04.22 1552 UTC
Wind: from the SSE (150 degrees) at 10 MPH (9 KT):0
Visibility: 10 mile(s):0
Sky conditions: clear
Temperature: 53 F (12 C)
Pressure (altimeter): 30.22 in. Hg (1023 hPa)
ob: KMWH 221552Z 15009KT 10SM CLR 12/ A3022 RMK AO2 SLP234 T0122
cycle: 16

Station Type Date Time Source
KMWH TAF 2019/04/22 12:33 UTC NOAA

TAF KMWH 221131Z 2212/2312 17007KT P6SM SCT250
FM221700 18007KT P6SM BKN180
FM222000 20009KT P6SM BKN120
FM230200 19007KT P6SM OVC100
FM230900 21006KT P6SM OVC100

Example: see airport list